sensor_id;sensor_type;location;lat;lon;timestamp;pressure;altitude;pressure_sealevel;temperature
66372;BMP180;53168;51.146;17.120;2022-07-29T00:00:06;100546.20;;;17.40
66372;BMP180;53168;51.146;17.120;2022-07-29T00:03:00;100541.80;;;17.40
66372;BMP180;53168;51.146;17.120;2022-07-29T00:05:34;100545.00;;;17.40
66372;BMP180;53168;51.146;17.120;2022-07-29T00:08:08;100541.60;;;17.50
66372;BMP180;53168;51.146;17.120;2022-07-29T00:10:44;100546.00;;;17.60
66372;BMP180;53168;51.146;17.120;2022-07-29T00:13:17;100546.20;;;17.60
66372;BMP180;53168;51.146;17.120;2022-07-29T00:16:04;100545.00;;;17.70
66372;BMP180;53168;51.146;17.120;2022-07-29T00:18:37;100550.40;;;17.60
66372;BMP180;53168;51.146;17.120;2022-07-29T00:21:11;100544.80;;;17.50
66372;BMP180;53168;51.146;17.120;2022-07-29T00:23:44;100553.80;;;17.40
66372;BMP180;53168;51.146;17.120;2022-07-29T00:26:17;100547.00;;;17.30
66372;BMP180;53168;51.146;17.120;2022-07-29T00:28:51;100548.00;;;17.30
66372;BMP180;53168;51.146;17.120;2022-07-29T00:31:42;100552.80;;;17.30
66372;BMP180;53168;51.146;17.120;2022-07-29T00:34:16;100548.60;;;17.36
66372;BMP180;53168;51.146;17.120;2022-07-29T00:37:06;100549.20;;;17.30
66372;BMP180;53168;51.146;17.120;2022-07-29T00:39:40;100543.20;;;17.20
66372;BMP180;53168;51.146;17.120;2022-07-29T00:46:46;100539.20;;;17.04
66372;BMP180;53168;51.146;17.120;2022-07-29T00:49:20;100533.20;;;17.00
66372;BMP180;53168;51.146;17.120;2022-07-29T00:51:54;100531.20;;;16.90
66372;BMP180;53168;51.146;17.120;2022-07-29T00:54:27;100530.00;;;16.90
66372;BMP180;53168;51.146;17.120;2022-07-29T00:57:02;100530.00;;;16.90
66372;BMP180;53168;51.146;17.120;2022-07-29T00:59:37;100535.20;;;16.80
66372;BMP180;53168;51.146;17.120;2022-07-29T01:02:10;100530.00;;;16.80
66372;BMP180;53168;51.146;17.120;2022-07-29T01:04:44;100529.80;;;16.80
66372;BMP180;53168;51.146;17.120;2022-07-29T01:07:18;100534.00;;;16.70
66372;BMP180;53168;51.146;17.120;2022-07-29T01:09:52;100540.20;;;16.70
66372;BMP180;53168;51.146;17.120;2022-07-29T01:12:28;100541.40;;;16.70
66372;BMP180;53168;51.146;17.120;2022-07-29T01:15:07;100541.20;;;16.70
66372;BMP180;53168;51.146;17.120;2022-07-29T01:17:46;100536.20;;;16.70
66372;BMP180;53168;51.146;17.120;2022-07-29T01:20:41;100534.20;;;16.80
66372;BMP180;53168;51.146;17.120;2022-07-29T01:23:59;100538.60;;;16.80
66372;BMP180;53168;51.146;17.120;2022-07-29T01:26:47;100534.80;;;16.70
66372;BMP180;53168;51.146;17.120;2022-07-29T01:29:28;100538.00;;;16.70
66372;BMP180;53168;51.146;17.120;2022-07-29T01:32:16;100526.40;;;16.60
66372;BMP180;53168;51.146;17.120;2022-07-29T01:35:04;100523.00;;;16.60
66372;BMP180;53168;51.146;17.120;2022-07-29T01:37:45;100523.60;;;16.60
66372;BMP180;53168;51.146;17.120;2022-07-29T01:40:25;100518.20;;;16.50
66372;BMP180;53168;51.146;17.120;2022-07-29T01:43:11;100520.40;;;16.50
66372;BMP180;53168;51.146;17.120;2022-07-29T01:45:51;100519.40;;;16.40
66372;BMP180;53168;51.146;17.120;2022-07-29T01:48:34;100521.20;;;16.40
66372;BMP180;53168;51.146;17.120;2022-07-29T01:51:14;100516.20;;;16.30
66372;BMP180;53168;51.146;17.120;2022-07-29T01:53:59;100514.60;;;16.30
66372;BMP180;53168;51.146;17.120;2022-07-29T01:56:36;100511.60;;;16.30
66372;BMP180;53168;51.146;17.120;2022-07-29T01:59:12;100510.40;;;16.30
66372;BMP180;53168;51.146;17.120;2022-07-29T02:04:51;100503.80;;;16.20
66372;BMP180;53168;51.146;17.120;2022-07-29T02:07:28;100502.40;;;16.10
66372;BMP180;53168;51.146;17.120;2022-07-29T02:10:04;100502.00;;;16.10
66372;BMP180;53168;51.146;17.120;2022-07-29T02:12:43;100500.40;;;16.00
66372;BMP180;53168;51.146;17.120;2022-07-29T02:15:24;100494.20;;;16.00
66372;BMP180;53168;51.146;17.120;2022-07-29T02:18:02;100495.00;;;16.00
66372;BMP180;53168;51.146;17.120;2022-07-29T02:20:39;100495.80;;;15.96
66372;BMP180;53168;51.146;17.120;2022-07-29T02:23:16;100495.00;;;15.90
66372;BMP180;53168;51.146;17.120;2022-07-29T02:25:56;100503.00;;;15.90
66372;BMP180;53168;51.146;17.120;2022-07-29T02:28:32;100493.60;;;15.90
66372;BMP180;53168;51.146;17.120;2022-07-29T02:31:06;100493.20;;;15.90
66372;BMP180;53168;51.146;17.120;2022-07-29T02:33:42;100497.80;;;15.82
66372;BMP180;53168;51.146;17.120;2022-07-29T02:36:22;100495.20;;;15.80
66372;BMP180;53168;51.146;17.120;2022-07-29T02:38:59;100497.60;;;15.80
66372;BMP180;53168;51.146;17.120;2022-07-29T02:41:40;100501.00;;;15.80
66372;BMP180;53168;51.146;17.120;2022-07-29T02:44:16;100498.40;;;15.80
66372;BMP180;53168;51.146;17.120;2022-07-29T02:47:04;100491.80;;;15.80
66372;BMP180;53168;51.146;17.120;2022-07-29T02:49:47;100498.00;;;15.70
66372;BMP180;53168;51.146;17.120;2022-07-29T02:52:29;100503.40;;;15.74
66372;BMP180;53168;51.146;17.120;2022-07-29T02:55:16;100495.40;;;15.70
66372;BMP180;53168;51.146;17.120;2022-07-29T02:57:59;100495.60;;;15.70
66372;BMP180;53168;51.146;17.120;2022-07-29T03:00:37;100499.60;;;15.80
66372;BMP180;53168;51.146;17.120;2022-07-29T03:03:16;100498.00;;;15.80
66372;BMP180;53168;51.146;17.120;2022-07-29T03:05:53;100500.00;;;15.90
66372;BMP180;53168;51.146;17.120;2022-07-29T03:08:31;100496.40;;;15.90
66372;BMP180;53168;51.146;17.120;2022-07-29T03:11:06;100503.20;;;15.90
66372;BMP180;53168;51.146;17.120;2022-07-29T03:13:42;100502.20;;;15.90
66372;BMP180;53168;51.146;17.120;2022-07-29T03:16:16;100501.20;;;16.00
66372;BMP180;53168;51.146;17.120;2022-07-29T03:18:51;100494.00;;;16.00
66372;BMP180;53168;51.146;17.120;2022-07-29T03:21:25;100498.80;;;16.00
66372;BMP180;53168;51.146;17.120;2022-07-29T03:23:59;100504.00;;;16.00
66372;BMP180;53168;51.146;17.120;2022-07-29T03:26:38;100505.80;;;16.00
66372;BMP180;53168;51.146;17.120;2022-07-29T03:29:11;100504.20;;;16.00
66372;BMP180;53168;51.146;17.120;2022-07-29T03:31:45;100503.20;;;16.00
66372;BMP180;53168;51.146;17.120;2022-07-29T03:34:19;100506.60;;;15.90
66372;BMP180;53168;51.146;17.120;2022-07-29T03:36:54;100505.20;;;15.82
66372;BMP180;53168;51.146;17.120;2022-07-29T03:39:33;100504.60;;;15.86
66372;BMP180;53168;51.146;17.120;2022-07-29T03:42:11;100503.20;;;15.80
66372;BMP180;53168;51.146;17.120;2022-07-29T03:44:49;100506.60;;;15.80
66372;BMP180;53168;51.146;17.120;2022-07-29T03:47:28;100511.00;;;15.78
66372;BMP180;53168;51.146;17.120;2022-07-29T03:50:23;100511.40;;;15.80
66372;BMP180;53168;51.146;17.120;2022-07-29T03:52:57;100509.80;;;15.80
66372;BMP180;53168;51.146;17.120;2022-07-29T03:55:44;100516.00;;;15.80
66372;BMP180;53168;51.146;17.120;2022-07-29T03:58:19;100519.80;;;15.90
66372;BMP180;53168;51.146;17.120;2022-07-29T04:00:53;100518.40;;;16.00
66372;BMP180;53168;51.146;17.120;2022-07-29T04:03:27;100517.20;;;16.00
66372;BMP180;53168;51.146;17.120;2022-07-29T04:06:07;100520.00;;;16.20
66372;BMP180;53168;51.146;17.120;2022-07-29T04:08:41;100521.00;;;16.30
66372;BMP180;53168;51.146;17.120;2022-07-29T04:11:15;100520.40;;;16.40
66372;BMP180;53168;51.146;17.120;2022-07-29T04:13:48;100520.00;;;16.40
66372;BMP180;53168;51.146;17.120;2022-07-29T04:16:22;100518.60;;;16.40
66372;BMP180;53168;51.146;17.120;2022-07-29T04:18:55;100519.80;;;16.36
66372;BMP180;53168;51.146;17.120;2022-07-29T04:21:29;100516.80;;;16.38
66372;BMP180;53168;51.146;17.120;2022-07-29T04:24:02;100518.60;;;16.40
66372;BMP180;53168;51.146;17.120;2022-07-29T04:26:36;100514.80;;;16.42
66372;BMP180;53168;51.146;17.120;2022-07-29T04:29:09;100509.00;;;16.50
66372;BMP180;53168;51.146;17.120;2022-07-29T04:31:44;100510.20;;;16.60
66372;BMP180;53168;51.146;17.120;2022-07-29T04:34:17;100509.00;;;16.64
66372;BMP180;53168;51.146;17.120;2022-07-29T04:36:51;100506.20;;;16.74
66372;BMP180;53168;51.146;17.120;2022-07-29T04:39:24;100505.40;;;16.88
66372;BMP180;53168;51.146;17.120;2022-07-29T04:42:01;100506.60;;;17.00
66372;BMP180;53168;51.146;17.120;2022-07-29T04:44:34;100508.80;;;17.10
66372;BMP180;53168;51.146;17.120;2022-07-29T04:47:11;100509.20;;;17.20
66372;BMP180;53168;51.146;17.120;2022-07-29T04:49:45;100507.00;;;17.40
66372;BMP180;53168;51.146;17.120;2022-07-29T04:52:18;100509.60;;;17.54
66372;BMP180;53168;51.146;17.120;2022-07-29T04:54:51;100510.60;;;17.70
66372;BMP180;53168;51.146;17.120;2022-07-29T04:57:24;100511.40;;;17.84
66372;BMP180;53168;51.146;17.120;2022-07-29T04:59:58;100508.20;;;18.00
66372;BMP180;53168;51.146;17.120;2022-07-29T05:02:35;100504.40;;;18.20
66372;BMP180;53168;51.146;17.120;2022-07-29T05:05:09;100507.80;;;18.40
66372;BMP180;53168;51.146;17.120;2022-07-29T05:07:45;100509.00;;;18.60
66372;BMP180;53168;51.146;17.120;2022-07-29T05:10:19;100502.40;;;18.76
66372;BMP180;53168;51.146;17.120;2022-07-29T05:12:52;100502.20;;;18.90
66372;BMP180;53168;51.146;17.120;2022-07-29T05:15:26;100501.60;;;19.00
66372;BMP180;53168;51.146;17.120;2022-07-29T05:17:59;100497.20;;;19.24
66372;BMP180;53168;51.146;17.120;2022-07-29T05:20:33;100494.40;;;19.50
66372;BMP180;53168;51.146;17.120;2022-07-29T05:23:06;100496.60;;;19.64
66372;BMP180;53168;51.146;17.120;2022-07-29T05:25:40;100505.60;;;19.74
66372;BMP180;53168;51.146;17.120;2022-07-29T05:28:15;100508.00;;;19.84
66372;BMP180;53168;51.146;17.120;2022-07-29T05:30:49;100507.80;;;20.00
66372;BMP180;53168;51.146;17.120;2022-07-29T05:33:23;100508.40;;;20.04
66372;BMP180;53168;51.146;17.120;2022-07-29T05:36:08;100504.40;;;20.10
66372;BMP180;53168;51.146;17.120;2022-07-29T05:38:42;100505.60;;;20.20
66372;BMP180;53168;51.146;17.120;2022-07-29T05:41:15;100507.20;;;20.20
66372;BMP180;53168;51.146;17.120;2022-07-29T05:43:49;100504.60;;;20.20
66372;BMP180;53168;51.146;17.120;2022-07-29T05:46:22;100505.00;;;20.30
66372;BMP180;53168;51.146;17.120;2022-07-29T05:48:56;100507.00;;;20.40
66372;BMP180;53168;51.146;17.120;2022-07-29T05:51:31;100505.40;;;20.60
66372;BMP180;53168;51.146;17.120;2022-07-29T05:54:05;100503.40;;;20.70
66372;BMP180;53168;51.146;17.120;2022-07-29T05:56:39;100499.20;;;20.72
66372;BMP180;53168;51.146;17.120;2022-07-29T05:59:13;100501.40;;;20.80
66372;BMP180;53168;51.146;17.120;2022-07-29T06:01:49;100500.00;;;20.80
66372;BMP180;53168;51.146;17.120;2022-07-29T06:04:22;100502.00;;;20.84
66372;BMP180;53168;51.146;17.120;2022-07-29T06:06:56;100502.40;;;20.92
66372;BMP180;53168;51.146;17.120;2022-07-29T06:09:29;100510.20;;;21.00
66372;BMP180;53168;51.146;17.120;2022-07-29T06:12:08;100511.80;;;21.10
66372;BMP180;53168;51.146;17.120;2022-07-29T06:14:41;100508.80;;;21.20
66372;BMP180;53168;51.146;17.120;2022-07-29T06:17:14;100502.80;;;21.30
66372;BMP180;53168;51.146;17.120;2022-07-29T06:19:48;100499.60;;;21.40
66372;BMP180;53168;51.146;17.120;2022-07-29T06:22:21;100502.40;;;21.58
66372;BMP180;53168;51.146;17.120;2022-07-29T06:24:55;100500.40;;;21.70
66372;BMP180;53168;51.146;17.120;2022-07-29T06:27:29;100497.20;;;21.90
66372;BMP180;53168;51.146;17.120;2022-07-29T06:30:03;100500.40;;;22.02
66372;BMP180;53168;51.146;17.120;2022-07-29T06:32:38;100503.00;;;22.20
66372;BMP180;53168;51.146;17.120;2022-07-29T06:35:14;100505.00;;;22.40
66372;BMP180;53168;51.146;17.120;2022-07-29T06:38:07;100502.20;;;22.50
66372;BMP180;53168;51.146;17.120;2022-07-29T06:41:01;100498.40;;;22.60
66372;BMP180;53168;51.146;17.120;2022-07-29T06:43:40;100500.80;;;22.78
66372;BMP180;53168;51.146;17.120;2022-07-29T06:46:25;100499.80;;;22.92
66372;BMP180;53168;51.146;17.120;2022-07-29T06:48:59;100506.00;;;23.10
66372;BMP180;53168;51.146;17.120;2022-07-29T06:51:34;100511.20;;;23.30
66372;BMP180;53168;51.146;17.120;2022-07-29T06:54:08;100512.40;;;23.42
66372;BMP180;53168;51.146;17.120;2022-07-29T06:56:41;100510.60;;;23.62
66372;BMP180;53168;51.146;17.120;2022-07-29T06:59:15;100513.60;;;23.80
66372;BMP180;53168;51.146;17.120;2022-07-29T07:01:48;100504.00;;;24.00
66372;BMP180;53168;51.146;17.120;2022-07-29T07:04:21;100506.00;;;24.20
66372;BMP180;53168;51.146;17.120;2022-07-29T07:06:55;100511.40;;;24.30
66372;BMP180;53168;51.146;17.120;2022-07-29T07:09:28;100513.00;;;24.50
66372;BMP180;53168;51.146;17.120;2022-07-29T07:12:12;100510.00;;;24.70
66372;BMP180;53168;51.146;17.120;2022-07-29T07:14:45;100507.20;;;24.80
66372;BMP180;53168;51.146;17.120;2022-07-29T07:17:19;100505.80;;;24.90
66372;BMP180;53168;51.146;17.120;2022-07-29T07:19:52;100507.40;;;25.00
66372;BMP180;53168;51.146;17.120;2022-07-29T07:22:25;100503.40;;;25.14
66372;BMP180;53168;51.146;17.120;2022-07-29T07:24:59;100503.40;;;25.30
66372;BMP180;53168;51.146;17.120;2022-07-29T07:27:32;100500.00;;;25.40
66372;BMP180;53168;51.146;17.120;2022-07-29T07:30:07;100496.80;;;25.50
66372;BMP180;53168;51.146;17.120;2022-07-29T07:32:41;100499.00;;;25.68
66372;BMP180;53168;51.146;17.120;2022-07-29T07:35:14;100494.20;;;25.90
66372;BMP180;53168;51.146;17.120;2022-07-29T07:37:48;100491.80;;;26.10
66372;BMP180;53168;51.146;17.120;2022-07-29T07:40:22;100495.60;;;26.22
66372;BMP180;53168;51.146;17.120;2022-07-29T07:54:45;100494.80;;;26.80
66372;BMP180;53168;51.146;17.120;2022-07-29T07:57:18;100490.00;;;26.70
66372;BMP180;53168;51.146;17.120;2022-07-29T07:59:51;100488.20;;;26.70
66372;BMP180;53168;51.146;17.120;2022-07-29T08:02:25;100490.40;;;26.70
66372;BMP180;53168;51.146;17.120;2022-07-29T08:04:58;100487.80;;;26.70
66372;BMP180;53168;51.146;17.120;2022-07-29T08:07:32;100496.80;;;26.70
66372;BMP180;53168;51.146;17.120;2022-07-29T08:10:06;100488.20;;;26.70
66372;BMP180;53168;51.146;17.120;2022-07-29T08:12:40;100493.00;;;26.78
66372;BMP180;53168;51.146;17.120;2022-07-29T08:15:13;100492.60;;;26.80
66372;BMP180;53168;51.146;17.120;2022-07-29T08:17:46;100488.60;;;26.86
66372;BMP180;53168;51.146;17.120;2022-07-29T08:20:20;100489.00;;;26.90
66372;BMP180;53168;51.146;17.120;2022-07-29T08:22:54;100492.40;;;26.90
66372;BMP180;53168;51.146;17.120;2022-07-29T08:25:28;100485.00;;;27.00
66372;BMP180;53168;51.146;17.120;2022-07-29T08:28:36;100486.80;;;27.10
66372;BMP180;53168;51.146;17.120;2022-07-29T08:31:10;100483.20;;;27.30
66372;BMP180;53168;51.146;17.120;2022-07-29T08:33:44;100485.20;;;27.50
66372;BMP180;53168;51.146;17.120;2022-07-29T08:36:18;100490.60;;;27.64
66372;BMP180;53168;51.146;17.120;2022-07-29T08:38:54;100490.60;;;27.80
66372;BMP180;53168;51.146;17.120;2022-07-29T08:41:29;100497.20;;;28.00
66372;BMP180;53168;51.146;17.120;2022-07-29T08:44:08;100489.80;;;28.10
66372;BMP180;53168;51.146;17.120;2022-07-29T08:47:00;100494.40;;;28.30
66372;BMP180;53168;51.146;17.120;2022-07-29T08:49:36;100488.80;;;28.48
66372;BMP180;53168;51.146;17.120;2022-07-29T08:52:13;100492.80;;;28.60
66372;BMP180;53168;51.146;17.120;2022-07-29T08:54:49;100486.60;;;28.70
66372;BMP180;53168;51.146;17.120;2022-07-29T08:57:24;100483.20;;;28.90
66372;BMP180;53168;51.146;17.120;2022-07-29T09:00:03;100487.00;;;29.10
66372;BMP180;53168;51.146;17.120;2022-07-29T09:02:54;100484.00;;;29.20
66372;BMP180;53168;51.146;17.120;2022-07-29T09:05:30;100486.20;;;29.30
66372;BMP180;53168;51.146;17.120;2022-07-29T09:08:12;100487.80;;;29.28
66372;BMP180;53168;51.146;17.120;2022-07-29T09:11:11;100482.80;;;29.20
66372;BMP180;53168;51.146;17.120;2022-07-29T09:13:45;100478.80;;;29.20
66372;BMP180;53168;51.146;17.120;2022-07-29T09:16:19;100479.80;;;29.12
66372;BMP180;53168;51.146;17.120;2022-07-29T09:19:23;100479.80;;;29.10
66372;BMP180;53168;51.146;17.120;2022-07-29T09:21:59;100478.20;;;29.10
66372;BMP180;53168;51.146;17.120;2022-07-29T09:24:44;100477.20;;;29.20
66372;BMP180;53168;51.146;17.120;2022-07-29T09:27:26;100474.20;;;29.30
66372;BMP180;53168;51.146;17.120;2022-07-29T09:30:03;100475.60;;;29.40
66372;BMP180;53168;51.146;17.120;2022-07-29T09:32:58;100478.80;;;29.40
66372;BMP180;53168;51.146;17.120;2022-07-29T09:35:33;100473.80;;;29.46
66372;BMP180;53168;51.146;17.120;2022-07-29T09:38:14;100475.20;;;29.50
66372;BMP180;53168;51.146;17.120;2022-07-29T09:40:59;100472.20;;;29.60
66372;BMP180;53168;51.146;17.120;2022-07-29T09:43:37;100468.80;;;29.70
66372;BMP180;53168;51.146;17.120;2022-07-29T09:46:17;100470.60;;;29.80
66372;BMP180;53168;51.146;17.120;2022-07-29T09:49:09;100466.40;;;29.80
66372;BMP180;53168;51.146;17.120;2022-07-29T09:51:48;100473.80;;;29.90
66372;BMP180;53168;51.146;17.120;2022-07-29T09:54:35;100466.00;;;29.90
66372;BMP180;53168;51.146;17.120;2022-07-29T09:57:23;100466.20;;;29.90
66372;BMP180;53168;51.146;17.120;2022-07-29T10:00:06;100459.40;;;29.90
66372;BMP180;53168;51.146;17.120;2022-07-29T10:02:47;100455.20;;;29.90
66372;BMP180;53168;51.146;17.120;2022-07-29T10:05:27;100462.40;;;29.90
66372;BMP180;53168;51.146;17.120;2022-07-29T10:08:08;100452.60;;;29.80
66372;BMP180;53168;51.146;17.120;2022-07-29T10:10:43;100453.80;;;29.80
66372;BMP180;53168;51.146;17.120;2022-07-29T10:13:17;100459.00;;;29.80
66372;BMP180;53168;51.146;17.120;2022-07-29T10:15:51;100450.20;;;29.90
66372;BMP180;53168;51.146;17.120;2022-07-29T10:18:25;100446.40;;;29.86
66372;BMP180;53168;51.146;17.120;2022-07-29T10:21:00;100454.20;;;29.80
66372;BMP180;53168;51.146;17.120;2022-07-29T10:23:34;100451.00;;;29.84
66372;BMP180;53168;51.146;17.120;2022-07-29T10:26:20;100449.20;;;29.90
66372;BMP180;53168;51.146;17.120;2022-07-29T10:28:54;100449.20;;;29.90
66372;BMP180;53168;51.146;17.120;2022-07-29T10:31:47;100443.40;;;29.96
66372;BMP180;53168;51.146;17.120;2022-07-29T10:34:34;100445.00;;;30.10
66372;BMP180;53168;51.146;17.120;2022-07-29T10:37:22;100445.40;;;30.28
66372;BMP180;53168;51.146;17.120;2022-07-29T10:40:26;100443.80;;;30.50
66372;BMP180;53168;51.146;17.120;2022-07-29T10:43:29;100442.40;;;30.70
66372;BMP180;53168;51.146;17.120;2022-07-29T10:46:06;100446.00;;;30.90
66372;BMP180;53168;51.146;17.120;2022-07-29T10:49:08;100438.80;;;31.00
66372;BMP180;53168;51.146;17.120;2022-07-29T10:52:02;100440.40;;;31.20
66372;BMP180;53168;51.146;17.120;2022-07-29T10:54:51;100438.00;;;31.44
66372;BMP180;53168;51.146;17.120;2022-07-29T10:57:30;100432.60;;;31.70
66372;BMP180;53168;51.146;17.120;2022-07-29T11:00:33;100432.00;;;31.92
66372;BMP180;53168;51.146;17.120;2022-07-29T11:03:07;100428.60;;;32.08
66372;BMP180;53168;51.146;17.120;2022-07-29T11:05:58;100430.60;;;32.22
66372;BMP180;53168;51.146;17.120;2022-07-29T11:08:32;100429.40;;;32.40
66372;BMP180;53168;51.146;17.120;2022-07-29T15:26:19;100308.80;;;33.28
66372;BMP180;53168;51.146;17.120;2022-07-29T15:28:53;100312.00;;;33.20
66372;BMP180;53168;51.146;17.120;2022-07-29T15:31:27;100307.00;;;33.00
66372;BMP180;53168;51.146;17.120;2022-07-29T15:34:01;100308.60;;;32.92
66372;BMP180;53168;51.146;17.120;2022-07-29T15:36:38;100302.20;;;33.02
66372;BMP180;53168;51.146;17.120;2022-07-29T15:39:27;100290.80;;;33.92
66372;BMP180;53168;51.146;17.120;2022-07-29T15:42:00;100301.20;;;35.00
66372;BMP180;53168;51.146;17.120;2022-07-29T15:44:35;100296.40;;;34.70
66372;BMP180;53168;51.146;17.120;2022-07-29T15:47:08;100296.40;;;34.46
66372;BMP180;53168;51.146;17.120;2022-07-29T15:49:44;100298.80;;;34.02
66372;BMP180;53168;51.146;17.120;2022-07-29T15:52:22;100296.80;;;33.52
66372;BMP180;53168;51.146;17.120;2022-07-29T15:54:59;100291.40;;;33.00
66372;BMP180;53168;51.146;17.120;2022-07-29T15:57:39;100293.20;;;32.56
66372;BMP180;53168;51.146;17.120;2022-07-29T16:00:15;100298.00;;;32.12
66372;BMP180;53168;51.146;17.120;2022-07-29T16:03:22;100299.20;;;31.70
66372;BMP180;53168;51.146;17.120;2022-07-29T16:05:55;100295.00;;;31.30
66372;BMP180;53168;51.146;17.120;2022-07-29T16:08:29;100296.60;;;30.90
66372;BMP180;53168;51.146;17.120;2022-07-29T16:11:02;100293.60;;;30.48
66372;BMP180;53168;51.146;17.120;2022-07-29T16:13:35;100291.60;;;30.20
66372;BMP180;53168;51.146;17.120;2022-07-29T16:16:09;100292.00;;;29.94
66372;BMP180;53168;51.146;17.120;2022-07-29T16:18:42;100291.40;;;29.90
66372;BMP180;53168;51.146;17.120;2022-07-29T16:21:16;100287.00;;;29.90
66372;BMP180;53168;51.146;17.120;2022-07-29T16:23:50;100280.20;;;30.18
66372;BMP180;53168;51.146;17.120;2022-07-29T16:26:23;100281.00;;;30.96
66372;BMP180;53168;51.146;17.120;2022-07-29T16:28:57;100284.20;;;31.20
66372;BMP180;53168;51.146;17.120;2022-07-29T16:31:30;100280.20;;;31.20
66372;BMP180;53168;51.146;17.120;2022-07-29T16:34:04;100277.20;;;31.40
66372;BMP180;53168;51.146;17.120;2022-07-29T16:36:37;100280.80;;;31.68
66372;BMP180;53168;51.146;17.120;2022-07-29T16:39:18;100284.40;;;31.70
66372;BMP180;53168;51.146;17.120;2022-07-29T16:41:52;100280.80;;;31.70
66372;BMP180;53168;51.146;17.120;2022-07-29T16:44:31;100277.40;;;31.60
66372;BMP180;53168;51.146;17.120;2022-07-29T16:47:13;100269.00;;;31.60
66372;BMP180;53168;51.146;17.120;2022-07-29T16:49:48;100263.60;;;31.80
66372;BMP180;53168;51.146;17.120;2022-07-29T16:52:21;100266.80;;;31.80
66372;BMP180;53168;51.146;17.120;2022-07-29T16:54:59;100268.60;;;31.60
66372;BMP180;53168;51.146;17.120;2022-07-29T16:57:32;100270.20;;;31.40
66372;BMP180;53168;51.146;17.120;2022-07-29T17:00:08;100267.80;;;31.20
66372;BMP180;53168;51.146;17.120;2022-07-29T17:02:42;100270.40;;;31.00
66372;BMP180;53168;51.146;17.120;2022-07-29T17:05:15;100271.00;;;30.80
66372;BMP180;53168;51.146;17.120;2022-07-29T17:07:49;100268.80;;;30.60
66372;BMP180;53168;51.146;17.120;2022-07-29T17:10:22;100266.20;;;30.40
66372;BMP180;53168;51.146;17.120;2022-07-29T17:12:59;100262.40;;;30.14
66372;BMP180;53168;51.146;17.120;2022-07-29T17:15:32;100259.00;;;30.00
66372;BMP180;53168;51.146;17.120;2022-07-29T17:18:07;100261.00;;;29.90
66372;BMP180;53168;51.146;17.120;2022-07-29T17:20:43;100262.20;;;29.70
66372;BMP180;53168;51.146;17.120;2022-07-29T17:23:17;100254.60;;;29.50
66372;BMP180;53168;51.146;17.120;2022-07-29T17:25:50;100254.40;;;29.40
66372;BMP180;53168;51.146;17.120;2022-07-29T17:28:24;100255.80;;;29.20
66372;BMP180;53168;51.146;17.120;2022-07-29T17:30:58;100253.80;;;28.96
66372;BMP180;53168;51.146;17.120;2022-07-29T17:33:31;100258.80;;;28.70
66372;BMP180;53168;51.146;17.120;2022-07-29T17:36:05;100262.20;;;28.50
66372;BMP180;53168;51.146;17.120;2022-07-29T17:39:05;100260.60;;;28.32
66372;BMP180;53168;51.146;17.120;2022-07-29T17:41:39;100261.40;;;28.16
66372;BMP180;53168;51.146;17.120;2022-07-29T17:44:13;100267.80;;;28.00
66372;BMP180;53168;51.146;17.120;2022-07-29T17:46:46;100272.00;;;27.80
66372;BMP180;53168;51.146;17.120;2022-07-29T17:49:20;100279.40;;;27.60
66372;BMP180;53168;51.146;17.120;2022-07-29T17:51:53;100281.80;;;27.40
66372;BMP180;53168;51.146;17.120;2022-07-29T17:54:32;100284.00;;;27.20
66372;BMP180;53168;51.146;17.120;2022-07-29T17:57:06;100286.60;;;27.00
66372;BMP180;53168;51.146;17.120;2022-07-29T17:59:39;100286.40;;;26.84
66372;BMP180;53168;51.146;17.120;2022-07-29T18:02:13;100286.00;;;26.70
66372;BMP180;53168;51.146;17.120;2022-07-29T18:04:46;100285.80;;;26.60
66372;BMP180;53168;51.146;17.120;2022-07-29T18:07:21;100289.20;;;26.40
66372;BMP180;53168;51.146;17.120;2022-07-29T18:09:57;100291.80;;;26.28
66372;BMP180;53168;51.146;17.120;2022-07-29T18:12:32;100290.80;;;26.10
66372;BMP180;53168;51.146;17.120;2022-07-29T18:15:07;100290.40;;;26.00
66372;BMP180;53168;51.146;17.120;2022-07-29T18:17:40;100291.20;;;25.90
66372;BMP180;53168;51.146;17.120;2022-07-29T18:20:29;100298.00;;;25.76
66372;BMP180;53168;51.146;17.120;2022-07-29T18:23:03;100298.00;;;25.70
66372;BMP180;53168;51.146;17.120;2022-07-29T18:25:37;100296.40;;;25.60
66372;BMP180;53168;51.146;17.120;2022-07-29T18:28:12;100293.40;;;25.50
66372;BMP180;53168;51.146;17.120;2022-07-29T18:30:49;100294.20;;;25.40
66372;BMP180;53168;51.146;17.120;2022-07-29T18:33:23;100292.60;;;25.40
66372;BMP180;53168;51.146;17.120;2022-07-29T18:35:57;100294.20;;;25.30
66372;BMP180;53168;51.146;17.120;2022-07-29T18:38:59;100297.60;;;25.20
66372;BMP180;53168;51.146;17.120;2022-07-29T18:41:37;100300.20;;;25.20
66372;BMP180;53168;51.146;17.120;2022-07-29T18:44:22;100296.40;;;25.10
66372;BMP180;53168;51.146;17.120;2022-07-29T18:46:56;100300.40;;;25.10
66372;BMP180;53168;51.146;17.120;2022-07-29T18:49:29;100295.00;;;25.00
66372;BMP180;53168;51.146;17.120;2022-07-29T18:52:04;100294.80;;;25.00
66372;BMP180;53168;51.146;17.120;2022-07-29T18:54:38;100297.80;;;24.90
66372;BMP180;53168;51.146;17.120;2022-07-29T18:57:11;100298.80;;;24.90
66372;BMP180;53168;51.146;17.120;2022-07-29T19:00:08;100295.20;;;24.80
66372;BMP180;53168;51.146;17.120;2022-07-29T19:02:44;100296.60;;;24.80
66372;BMP180;53168;51.146;17.120;2022-07-29T19:05:26;100297.40;;;24.80
66372;BMP180;53168;51.146;17.120;2022-07-29T19:08:00;100295.40;;;24.80
66372;BMP180;53168;51.146;17.120;2022-07-29T19:10:36;100294.20;;;24.70
66372;BMP180;53168;51.146;17.120;2022-07-29T19:13:09;100293.00;;;24.64
66372;BMP180;53168;51.146;17.120;2022-07-29T19:15:44;100297.40;;;24.60